Interlaken, Suiza

4:56 AM CET en Noviembre 01, 2014 (GMT +0100)
Thunersee | Change Station
CLOSE
Current Station
Estación meteorológica personal
Location: Spiez, BERN
Altura: 2051 ft
Estaciones meteorológicas cercanas

Alt 2051 ft 46.68 °N, 7.69 °E | Updated 15 seconds ago

Patches of Fog
Bancos de niebla
46.0 ° F
Sensación térmica 46 ° F
N
0.0
Viento Variable Viento desde SSE
Gusts 0.0 mph

Hoy
Alta -- | Baja -- ° F
--% Posibilidad de precipitaciones
Ayer
Alta -- | Baja -- ° F
Precip. -- pul
7:10 AM 5:13 PM
Gibosa creciente, 62% visible
Presión 30.27 pul
Visibilidad 0.4 Millas
Nubes
Vientos helados 46 ° F
Punto de rocío 42 ° F
Humedad 86%
Precipitaciones 0.00 pul
Espesor de la nieve No disponible.
UV 0.0 de una escala de 12
Polen No disponible.
Calidad del aire No disponible.
Flu Activity No disponible.
METAR LSMM 010350Z AUTO 10002KT 0700NDV R10/1100VP2000D R28/0600V0800D BCFG NCD 02/01 Q1025 RMK RED

More Conditions Fewer Conditions

Presión 30.27 pul
Visibilidad 0.4 Millas
Nubes
Vientos helados 46 ° F
Punto de rocío 42 ° F
Humedad 86%
Precipitaciones 0.00 pul
Espesor de la nieve No disponible.
UV 0.0 de una escala de 12
Polen No disponible.
Calidad del aire No disponible.
Flu Activity No disponible.
METAR LSMM 010350Z AUTO 10002KT 0700NDV R10/1100VP2000D R28/0600V0800D BCFG NCD 02/01 Q1025 RMK RED

More Conditions Fewer Conditions

10-Day Weather Forecast

Almanac

Astronomía

Nov. 01, 2014 Salida Puesta
Hora real
Crepúsculo civil
Crepúsculo náutico
Crepúsculo astronómico
Luna
Horas de luz
Horas de luz
Tomorrow will be .
, % of the Moon is Illuminated

Extremos de hoy

Máximos del país Bajas del país

Community

WunderPhotos

Upload Photos

1,766,847 ¡fotos cargadas!

WunderBlogs® & News

Nearby

Calidad del aire

  Calidad del aire Índice AQ Contaminante
Not available.

Grosos de nieve

Estación Profundido Altura

Actividad de terremotos

Ciudad Distance Mag. Tiempo y dato
Magnitud mínima muestra es 2,5.

Temperaturas de aguas costeras

Lugar Temperatura

Estaciones meteorológicas cercanas